sensor_id;sensor_type;location;lat;lon;timestamp;temperature;humidity
14733;DHT22;7457;50.960;6.830;2023-07-08T00:01:11;18.20;64.90
14733;DHT22;7457;50.960;6.830;2023-07-08T00:03:38;18.20;64.80
14733;DHT22;7457;50.960;6.830;2023-07-08T00:06:03;18.20;64.70
14733;DHT22;7457;50.960;6.830;2023-07-08T00:08:29;18.10;64.70
14733;DHT22;7457;50.960;6.830;2023-07-08T00:10:55;18.10;64.70
14733;DHT22;7457;50.960;6.830;2023-07-08T00:13:21;18.10;64.90
14733;DHT22;7457;50.960;6.830;2023-07-08T00:15:46;18.10;64.90
14733;DHT22;7457;50.960;6.830;2023-07-08T00:18:14;18.10;65.10
14733;DHT22;7457;50.960;6.830;2023-07-08T00:20:50;18.10;65.20
14733;DHT22;7457;50.960;6.830;2023-07-08T00:23:16;18.10;65.10
14733;DHT22;7457;50.960;6.830;2023-07-08T00:25:42;18.00;64.90
14733;DHT22;7457;50.960;6.830;2023-07-08T00:28:19;18.10;64.90
14733;DHT22;7457;50.960;6.830;2023-07-08T00:30:46;18.10;64.40
14733;DHT22;7457;50.960;6.830;2023-07-08T00:33:11;18.20;64.00
14733;DHT22;7457;50.960;6.830;2023-07-08T00:38:24;18.30;64.30
14733;DHT22;7457;50.960;6.830;2023-07-08T00:43:38;18.20;65.00
14733;DHT22;7457;50.960;6.830;2023-07-08T00:48:39;18.00;65.80
14733;DHT22;7457;50.960;6.830;2023-07-08T00:51:09;18.00;65.90
14733;DHT22;7457;50.960;6.830;2023-07-08T00:53:36;17.90;66.20
14733;DHT22;7457;50.960;6.830;2023-07-08T00:56:09;17.90;66.20
14733;DHT22;7457;50.960;6.830;2023-07-08T00:59:08;17.80;66.60
14733;DHT22;7457;50.960;6.830;2023-07-08T01:01:38;17.80;66.60
14733;DHT22;7457;50.960;6.830;2023-07-08T01:04:30;17.70;66.80
14733;DHT22;7457;50.960;6.830;2023-07-08T01:06:59;17.70;66.80
14733;DHT22;7457;50.960;6.830;2023-07-08T01:09:32;17.70;67.10
14733;DHT22;7457;50.960;6.830;2023-07-08T01:12:01;17.70;67.40
14733;DHT22;7457;50.960;6.830;2023-07-08T01:14:31;17.70;67.40
14733;DHT22;7457;50.960;6.830;2023-07-08T01:16:58;17.80;67.30
14733;DHT22;7457;50.960;6.830;2023-07-08T01:19:24;17.80;67.20
14733;DHT22;7457;50.960;6.830;2023-07-08T01:24:27;18.00;67.00
14733;DHT22;7457;50.960;6.830;2023-07-08T01:26:53;18.00;66.80
14733;DHT22;7457;50.960;6.830;2023-07-08T01:29:19;18.00;66.90
14733;DHT22;7457;50.960;6.830;2023-07-08T01:31:45;18.10;67.10
14733;DHT22;7457;50.960;6.830;2023-07-08T01:34:15;18.00;67.20
14733;DHT22;7457;50.960;6.830;2023-07-08T01:36:51;18.00;67.50
14733;DHT22;7457;50.960;6.830;2023-07-08T01:39:19;18.00;67.70
14733;DHT22;7457;50.960;6.830;2023-07-08T01:41:46;17.90;67.80
14733;DHT22;7457;50.960;6.830;2023-07-08T01:44:32;17.90;68.10
14733;DHT22;7457;50.960;6.830;2023-07-08T01:47:04;17.80;68.50
14733;DHT22;7457;50.960;6.830;2023-07-08T01:49:33;17.80;68.70
14733;DHT22;7457;50.960;6.830;2023-07-08T01:52:01;17.80;68.80
14733;DHT22;7457;50.960;6.830;2023-07-08T01:54:27;17.70;68.90
14733;DHT22;7457;50.960;6.830;2023-07-08T01:56:56;17.70;69.20
14733;DHT22;7457;50.960;6.830;2023-07-08T01:59:22;17.80;69.40
14733;DHT22;7457;50.960;6.830;2023-07-08T02:01:48;17.80;69.40
14733;DHT22;7457;50.960;6.830;2023-07-08T02:04:15;17.80;69.40
14733;DHT22;7457;50.960;6.830;2023-07-08T02:06:41;17.80;69.30
14733;DHT22;7457;50.960;6.830;2023-07-08T02:09:07;17.80;69.00
14733;DHT22;7457;50.960;6.830;2023-07-08T02:11:33;17.80;69.00
14733;DHT22;7457;50.960;6.830;2023-07-08T02:13:59;17.90;68.90
14733;DHT22;7457;50.960;6.830;2023-07-08T02:16:26;17.90;68.30
14733;DHT22;7457;50.960;6.830;2023-07-08T02:18:51;18.00;67.60
14733;DHT22;7457;50.960;6.830;2023-07-08T02:21:17;18.00;66.90
14733;DHT22;7457;50.960;6.830;2023-07-08T02:23:45;18.10;66.30
14733;DHT22;7457;50.960;6.830;2023-07-08T02:26:11;18.30;65.70
14733;DHT22;7457;50.960;6.830;2023-07-08T02:28:36;18.40;65.00
14733;DHT22;7457;50.960;6.830;2023-07-08T02:31:03;18.50;64.50
14733;DHT22;7457;50.960;6.830;2023-07-08T02:33:28;18.60;64.60
14733;DHT22;7457;50.960;6.830;2023-07-08T02:35:59;18.50;64.90
14733;DHT22;7457;50.960;6.830;2023-07-08T02:38:25;18.30;65.40
14733;DHT22;7457;50.960;6.830;2023-07-08T02:40:51;18.10;65.90
14733;DHT22;7457;50.960;6.830;2023-07-08T02:43:17;17.90;66.30
14733;DHT22;7457;50.960;6.830;2023-07-08T02:45:42;17.70;66.90
14733;DHT22;7457;50.960;6.830;2023-07-08T02:48:08;17.60;67.40
14733;DHT22;7457;50.960;6.830;2023-07-08T02:50:33;17.40;67.90
14733;DHT22;7457;50.960;6.830;2023-07-08T02:52:59;17.30;68.30
14733;DHT22;7457;50.960;6.830;2023-07-08T02:55:25;17.10;68.80
14733;DHT22;7457;50.960;6.830;2023-07-08T02:57:50;17.00;69.20
14733;DHT22;7457;50.960;6.830;2023-07-08T03:00:16;17.00;69.50
14733;DHT22;7457;50.960;6.830;2023-07-08T03:02:42;16.90;69.80
14733;DHT22;7457;50.960;6.830;2023-07-08T03:05:08;16.80;69.90
14733;DHT22;7457;50.960;6.830;2023-07-08T03:07:36;16.80;70.00
14733;DHT22;7457;50.960;6.830;2023-07-08T03:10:01;16.80;70.20
14733;DHT22;7457;50.960;6.830;2023-07-08T03:12:27;16.70;70.40
14733;DHT22;7457;50.960;6.830;2023-07-08T03:14:53;16.70;70.60
14733;DHT22;7457;50.960;6.830;2023-07-08T03:17:18;16.70;70.70
14733;DHT22;7457;50.960;6.830;2023-07-08T03:19:44;16.70;70.90
14733;DHT22;7457;50.960;6.830;2023-07-08T03:22:10;16.70;70.90
14733;DHT22;7457;50.960;6.830;2023-07-08T03:24:36;16.70;70.90
14733;DHT22;7457;50.960;6.830;2023-07-08T03:27:02;16.70;70.90
14733;DHT22;7457;50.960;6.830;2023-07-08T03:29:30;16.70;70.90
14733;DHT22;7457;50.960;6.830;2023-07-08T03:31:56;16.70;70.80
14733;DHT22;7457;50.960;6.830;2023-07-08T03:34:21;16.80;70.50
14733;DHT22;7457;50.960;6.830;2023-07-08T03:36:49;16.90;70.10
14733;DHT22;7457;50.960;6.830;2023-07-08T03:39:19;17.10;70.10
14733;DHT22;7457;50.960;6.830;2023-07-08T03:41:45;17.20;69.90
14733;DHT22;7457;50.960;6.830;2023-07-08T03:44:11;17.30;69.30
14733;DHT22;7457;50.960;6.830;2023-07-08T03:46:38;17.40;69.00
14733;DHT22;7457;50.960;6.830;2023-07-08T03:49:05;17.50;68.70
14733;DHT22;7457;50.960;6.830;2023-07-08T03:51:34;17.60;68.30
14733;DHT22;7457;50.960;6.830;2023-07-08T03:54:00;17.70;68.10
14733;DHT22;7457;50.960;6.830;2023-07-08T03:56:26;17.70;68.30
14733;DHT22;7457;50.960;6.830;2023-07-08T03:58:52;17.70;68.40
14733;DHT22;7457;50.960;6.830;2023-07-08T04:01:20;17.70;68.50
14733;DHT22;7457;50.960;6.830;2023-07-08T04:03:46;17.70;68.60
14733;DHT22;7457;50.960;6.830;2023-07-08T04:06:13;17.60;68.40
14733;DHT22;7457;50.960;6.830;2023-07-08T04:08:39;17.70;68.50
14733;DHT22;7457;50.960;6.830;2023-07-08T04:11:05;17.70;68.10
14733;DHT22;7457;50.960;6.830;2023-07-08T04:13:31;17.90;67.70
14733;DHT22;7457;50.960;6.830;2023-07-08T04:15:59;18.00;67.10
14733;DHT22;7457;50.960;6.830;2023-07-08T04:18:27;18.20;66.10
14733;DHT22;7457;50.960;6.830;2023-07-08T04:20:52;18.40;65.20
14733;DHT22;7457;50.960;6.830;2023-07-08T04:23:19;18.50;64.70
14733;DHT22;7457;50.960;6.830;2023-07-08T04:25:46;18.70;64.00
14733;DHT22;7457;50.960;6.830;2023-07-08T04:28:12;18.80;63.40
14733;DHT22;7457;50.960;6.830;2023-07-08T04:30:37;18.90;63.00
14733;DHT22;7457;50.960;6.830;2023-07-08T04:33:07;18.90;62.80
14733;DHT22;7457;50.960;6.830;2023-07-08T04:35:36;18.90;62.50
14733;DHT22;7457;50.960;6.830;2023-07-08T04:38:05;19.00;62.10
14733;DHT22;7457;50.960;6.830;2023-07-08T04:40:36;19.00;61.90
14733;DHT22;7457;50.960;6.830;2023-07-08T04:43:07;19.10;61.80
14733;DHT22;7457;50.960;6.830;2023-07-08T04:45:34;19.10;61.80
14733;DHT22;7457;50.960;6.830;2023-07-08T04:48:00;19.10;62.20
14733;DHT22;7457;50.960;6.830;2023-07-08T04:50:26;19.20;64.20
14733;DHT22;7457;50.960;6.830;2023-07-08T04:52:51;19.70;63.70
14733;DHT22;7457;50.960;6.830;2023-07-08T04:55:17;20.30;62.60
14733;DHT22;7457;50.960;6.830;2023-07-08T04:57:43;20.90;61.60
14733;DHT22;7457;50.960;6.830;2023-07-08T05:00:14;21.50;60.40
14733;DHT22;7457;50.960;6.830;2023-07-08T05:02:42;21.90;58.90
14733;DHT22;7457;50.960;6.830;2023-07-08T05:05:08;22.20;57.80
14733;DHT22;7457;50.960;6.830;2023-07-08T05:07:34;22.40;56.90
14733;DHT22;7457;50.960;6.830;2023-07-08T05:09:59;22.20;55.50
14733;DHT22;7457;50.960;6.830;2023-07-08T05:12:26;22.00;57.00
14733;DHT22;7457;50.960;6.830;2023-07-08T05:14:51;22.00;57.10
14733;DHT22;7457;50.960;6.830;2023-07-08T05:17:17;21.90;57.40
14733;DHT22;7457;50.960;6.830;2023-07-08T05:19:43;21.90;58.00
14733;DHT22;7457;50.960;6.830;2023-07-08T05:22:10;22.00;58.40
14733;DHT22;7457;50.960;6.830;2023-07-08T05:24:36;22.30;57.70
14733;DHT22;7457;50.960;6.830;2023-07-08T05:27:02;22.60;57.30
14733;DHT22;7457;50.960;6.830;2023-07-08T05:29:29;22.90;55.90
14733;DHT22;7457;50.960;6.830;2023-07-08T05:31:55;23.10;54.80
14733;DHT22;7457;50.960;6.830;2023-07-08T05:34:21;23.20;54.10
14733;DHT22;7457;50.960;6.830;2023-07-08T05:36:46;23.00;53.50
14733;DHT22;7457;50.960;6.830;2023-07-08T05:39:12;22.90;53.80
14733;DHT22;7457;50.960;6.830;2023-07-08T05:41:38;22.70;53.60
14733;DHT22;7457;50.960;6.830;2023-07-08T05:44:04;22.60;53.80
14733;DHT22;7457;50.960;6.830;2023-07-08T05:46:29;22.50;54.40
14733;DHT22;7457;50.960;6.830;2023-07-08T05:48:55;22.50;53.60
14733;DHT22;7457;50.960;6.830;2023-07-08T05:51:21;22.40;52.80
14733;DHT22;7457;50.960;6.830;2023-07-08T05:53:46;22.30;53.10
14733;DHT22;7457;50.960;6.830;2023-07-08T05:56:12;22.30;54.00
14733;DHT22;7457;50.960;6.830;2023-07-08T05:58:40;22.30;53.70
14733;DHT22;7457;50.960;6.830;2023-07-08T06:01:06;22.40;54.20
14733;DHT22;7457;50.960;6.830;2023-07-08T06:03:32;22.50;53.80
14733;DHT22;7457;50.960;6.830;2023-07-08T06:05:57;22.60;53.50
14733;DHT22;7457;50.960;6.830;2023-07-08T06:08:23;22.70;53.10
14733;DHT22;7457;50.960;6.830;2023-07-08T06:10:49;22.70;53.00
14733;DHT22;7457;50.960;6.830;2023-07-08T06:13:15;22.80;52.40
14733;DHT22;7457;50.960;6.830;2023-07-08T06:15:41;22.80;52.10
14733;DHT22;7457;50.960;6.830;2023-07-08T06:18:08;22.80;52.70
14733;DHT22;7457;50.960;6.830;2023-07-08T06:20:33;23.00;52.70
14733;DHT22;7457;50.960;6.830;2023-07-08T06:22:59;23.10;51.60
14733;DHT22;7457;50.960;6.830;2023-07-08T06:25:25;23.30;51.10
14733;DHT22;7457;50.960;6.830;2023-07-08T06:27:50;23.40;50.70
14733;DHT22;7457;50.960;6.830;2023-07-08T06:30:16;23.50;50.30
14733;DHT22;7457;50.960;6.830;2023-07-08T06:32:42;23.60;50.20
14733;DHT22;7457;50.960;6.830;2023-07-08T06:35:08;23.70;50.00
14733;DHT22;7457;50.960;6.830;2023-07-08T06:37:37;23.70;50.00
14733;DHT22;7457;50.960;6.830;2023-07-08T06:40:02;23.90;50.10
14733;DHT22;7457;50.960;6.830;2023-07-08T06:42:28;24.10;49.40
14733;DHT22;7457;50.960;6.830;2023-07-08T06:44:55;24.20;49.00
14733;DHT22;7457;50.960;6.830;2023-07-08T06:47:21;24.30;48.90
14733;DHT22;7457;50.960;6.830;2023-07-08T06:49:47;24.50;48.20
14733;DHT22;7457;50.960;6.830;2023-07-08T06:52:14;24.50;48.10
14733;DHT22;7457;50.960;6.830;2023-07-08T06:54:40;24.50;48.30
14733;DHT22;7457;50.960;6.830;2023-07-08T06:57:06;24.50;48.40
14733;DHT22;7457;50.960;6.830;2023-07-08T06:59:32;24.60;48.70
14733;DHT22;7457;50.960;6.830;2023-07-08T07:01:58;24.80;48.70
14733;DHT22;7457;50.960;6.830;2023-07-08T07:04:24;25.00;48.20
14733;DHT22;7457;50.960;6.830;2023-07-08T07:06:52;25.10;48.30
14733;DHT22;7457;50.960;6.830;2023-07-08T07:09:18;25.40;48.30
14733;DHT22;7457;50.960;6.830;2023-07-08T07:11:43;25.50;47.50
14733;DHT22;7457;50.960;6.830;2023-07-08T07:14:09;25.60;46.80
14733;DHT22;7457;50.960;6.830;2023-07-08T07:16:34;25.60;46.20
14733;DHT22;7457;50.960;6.830;2023-07-08T07:19:00;25.70;47.10
14733;DHT22;7457;50.960;6.830;2023-07-08T07:21:27;25.70;45.30
14733;DHT22;7457;50.960;6.830;2023-07-08T07:23:53;25.60;45.80
14733;DHT22;7457;50.960;6.830;2023-07-08T07:26:18;25.70;47.00
14733;DHT22;7457;50.960;6.830;2023-07-08T07:28:44;26.10;45.50
14733;DHT22;7457;50.960;6.830;2023-07-08T07:31:09;26.30;45.80
14733;DHT22;7457;50.960;6.830;2023-07-08T07:33:36;26.40;45.40
14733;DHT22;7457;50.960;6.830;2023-07-08T07:36:02;26.50;45.20
14733;DHT22;7457;50.960;6.830;2023-07-08T07:38:29;26.30;45.00
14733;DHT22;7457;50.960;6.830;2023-07-08T07:40:55;26.10;44.80
14733;DHT22;7457;50.960;6.830;2023-07-08T07:43:22;26.00;45.50
14733;DHT22;7457;50.960;6.830;2023-07-08T07:45:51;25.90;45.70
14733;DHT22;7457;50.960;6.830;2023-07-08T07:48:18;25.90;45.50
14733;DHT22;7457;50.960;6.830;2023-07-08T07:50:47;25.90;45.70
14733;DHT22;7457;50.960;6.830;2023-07-08T07:53:13;25.90;45.60
14733;DHT22;7457;50.960;6.830;2023-07-08T07:55:39;26.00;45.60
14733;DHT22;7457;50.960;6.830;2023-07-08T07:58:05;26.20;45.50
14733;DHT22;7457;50.960;6.830;2023-07-08T08:00:30;26.50;45.10
14733;DHT22;7457;50.960;6.830;2023-07-08T08:02:56;26.70;43.30
14733;DHT22;7457;50.960;6.830;2023-07-08T08:05:23;26.70;43.90
14733;DHT22;7457;50.960;6.830;2023-07-08T08:07:48;26.50;42.80
14733;DHT22;7457;50.960;6.830;2023-07-08T08:10:14;26.30;43.20
14733;DHT22;7457;50.960;6.830;2023-07-08T08:12:40;26.40;44.80
14733;DHT22;7457;50.960;6.830;2023-07-08T08:15:07;26.70;44.30
14733;DHT22;7457;50.960;6.830;2023-07-08T08:17:33;27.00;43.90
14733;DHT22;7457;50.960;6.830;2023-07-08T08:19:58;27.20;43.60
14733;DHT22;7457;50.960;6.830;2023-07-08T08:22:24;27.40;43.30
14733;DHT22;7457;50.960;6.830;2023-07-08T08:24:50;27.40;43.00
14733;DHT22;7457;50.960;6.830;2023-07-08T08:27:15;27.50;43.40
14733;DHT22;7457;50.960;6.830;2023-07-08T08:29:41;27.60;43.40
14733;DHT22;7457;50.960;6.830;2023-07-08T08:32:07;27.80;42.90
14733;DHT22;7457;50.960;6.830;2023-07-08T08:34:33;28.10;42.60
14733;DHT22;7457;50.960;6.830;2023-07-08T08:36:58;28.20;41.90
14733;DHT22;7457;50.960;6.830;2023-07-08T08:39:24;28.20;42.00
14733;DHT22;7457;50.960;6.830;2023-07-08T08:41:55;28.10;42.50
14733;DHT22;7457;50.960;6.830;2023-07-08T08:44:34;28.20;42.40
14733;DHT22;7457;50.960;6.830;2023-07-08T08:47:26;28.30;42.40
14733;DHT22;7457;50.960;6.830;2023-07-08T08:50:02;28.50;42.70
14733;DHT22;7457;50.960;6.830;2023-07-08T08:52:29;28.80;42.60
14733;DHT22;7457;50.960;6.830;2023-07-08T08:54:55;29.20;42.20
14733;DHT22;7457;50.960;6.830;2023-07-08T08:59:55;29.80;41.70
14733;DHT22;7457;50.960;6.830;2023-07-08T09:05:09;30.20;41.30
14733;DHT22;7457;50.960;6.830;2023-07-08T09:13:03;31.50;38.40
14733;DHT22;7457;50.960;6.830;2023-07-08T09:15:30;31.90;38.20
14733;DHT22;7457;50.960;6.830;2023-07-08T09:18:03;32.10;37.70
14733;DHT22;7457;50.960;6.830;2023-07-08T09:20:35;32.30;37.70
14733;DHT22;7457;50.960;6.830;2023-07-08T09:23:26;32.50;37.80
14733;DHT22;7457;50.960;6.830;2023-07-08T09:26:03;32.80;36.90
14733;DHT22;7457;50.960;6.830;2023-07-08T09:28:41;32.90;37.10
14733;DHT22;7457;50.960;6.830;2023-07-08T09:31:09;33.10;36.70
14733;DHT22;7457;50.960;6.830;2023-07-08T09:33:41;33.30;36.60
14733;DHT22;7457;50.960;6.830;2023-07-08T09:36:17;33.40;36.10
14733;DHT22;7457;50.960;6.830;2023-07-08T09:38:47;33.50;36.10
14733;DHT22;7457;50.960;6.830;2023-07-08T09:41:13;33.50;36.40
14733;DHT22;7457;50.960;6.830;2023-07-08T09:43:39;33.60;36.10
14733;DHT22;7457;50.960;6.830;2023-07-08T09:46:05;33.60;36.10
14733;DHT22;7457;50.960;6.830;2023-07-08T09:48:37;33.80;36.00
14733;DHT22;7457;50.960;6.830;2023-07-08T09:51:04;33.90;35.70
14733;DHT22;7457;50.960;6.830;2023-07-08T09:53:30;34.00;35.90
14733;DHT22;7457;50.960;6.830;2023-07-08T09:55:59;34.20;35.80
14733;DHT22;7457;50.960;6.830;2023-07-08T09:58:32;34.40;35.70
14733;DHT22;7457;50.960;6.830;2023-07-08T10:01:02;34.60;35.40
14733;DHT22;7457;50.960;6.830;2023-07-08T10:03:33;34.70;35.10
14733;DHT22;7457;50.960;6.830;2023-07-08T10:06:05;34.70;35.00
14733;DHT22;7457;50.960;6.830;2023-07-08T10:08:40;34.70;35.20
14733;DHT22;7457;50.960;6.830;2023-07-08T10:11:28;35.00;35.30
14733;DHT22;7457;50.960;6.830;2023-07-08T10:13:58;35.30;34.60
14733;DHT22;7457;50.960;6.830;2023-07-08T10:18:52;35.60;35.00
14733;DHT22;7457;50.960;6.830;2023-07-08T10:21:38;36.00;35.10
14733;DHT22;7457;50.960;6.830;2023-07-08T10:24:35;36.50;34.00
14733;DHT22;7457;50.960;6.830;2023-07-08T10:30:26;36.50;33.60
14733;DHT22;7457;50.960;6.830;2023-07-08T10:36:09;36.40;33.80
14733;DHT22;7457;50.960;6.830;2023-07-08T10:38:50;36.30;33.90
14733;DHT22;7457;50.960;6.830;2023-07-08T10:41:28;36.20;34.30
14733;DHT22;7457;50.960;6.830;2023-07-08T10:52:04;36.30;33.90
14733;DHT22;7457;50.960;6.830;2023-07-08T10:55:00;36.20;34.10
14733;DHT22;7457;50.960;6.830;2023-07-08T11:03:58;36.20;34.20
14733;DHT22;7457;50.960;6.830;2023-07-08T11:06:45;36.40;33.90
14733;DHT22;7457;50.960;6.830;2023-07-08T11:09:39;36.50;33.70
14733;DHT22;7457;50.960;6.830;2023-07-08T11:17:42;36.80;33.70
14733;DHT22;7457;50.960;6.830;2023-07-08T11:22:49;37.10;32.30
14733;DHT22;7457;50.960;6.830;2023-07-08T11:25:19;36.80;32.70
14733;DHT22;7457;50.960;6.830;2023-07-08T11:27:48;36.80;32.90
14733;DHT22;7457;50.960;6.830;2023-07-08T11:30:20;36.90;33.30
14733;DHT22;7457;50.960;6.830;2023-07-08T11:32:48;37.00;32.00
14733;DHT22;7457;50.960;6.830;2023-07-08T11:35:37;36.90;31.80
14733;DHT22;7457;50.960;6.830;2023-07-08T11:38:09;36.80;32.70
14733;DHT22;7457;50.960;6.830;2023-07-08T11:43:24;37.30;32.20
14733;DHT22;7457;50.960;6.830;2023-07-08T11:45:51;37.20;32.00
14733;DHT22;7457;50.960;6.830;2023-07-08T11:48:24;37.00;32.50
14733;DHT22;7457;50.960;6.830;2023-07-08T11:50:51;37.10;33.20
14733;DHT22;7457;50.960;6.830;2023-07-08T11:56:01;37.70;32.20
14733;DHT22;7457;50.960;6.830;2023-07-08T11:58:30;37.80;31.40
14733;DHT22;7457;50.960;6.830;2023-07-08T12:03:35;37.70;31.30
14733;DHT22;7457;50.960;6.830;2023-07-08T12:06:02;37.60;30.70
14733;DHT22;7457;50.960;6.830;2023-07-08T12:08:37;37.40;30.90
14733;DHT22;7457;50.960;6.830;2023-07-08T12:11:03;37.10;31.20
14733;DHT22;7457;50.960;6.830;2023-07-08T12:13:33;36.90;31.70
14733;DHT22;7457;50.960;6.830;2023-07-08T12:15:59;36.90;31.60
14733;DHT22;7457;50.960;6.830;2023-07-08T12:18:30;37.00;31.40
14733;DHT22;7457;50.960;6.830;2023-07-08T12:20:58;37.10;31.70
14733;DHT22;7457;50.960;6.830;2023-07-08T12:23:27;37.20;31.20
14733;DHT22;7457;50.960;6.830;2023-07-08T12:25:54;37.10;30.80
14733;DHT22;7457;50.960;6.830;2023-07-08T12:28:20;36.80;30.90
14733;DHT22;7457;50.960;6.830;2023-07-08T12:30:47;36.60;30.80
14733;DHT22;7457;50.960;6.830;2023-07-08T12:33:22;36.40;31.00
14733;DHT22;7457;50.960;6.830;2023-07-08T12:35:50;36.20;31.50
14733;DHT22;7457;50.960;6.830;2023-07-08T12:38:29;36.20;31.70
14733;DHT22;7457;50.960;6.830;2023-07-08T12:40:58;36.00;31.10
14733;DHT22;7457;50.960;6.830;2023-07-08T12:43:25;35.70;31.80
14733;DHT22;7457;50.960;6.830;2023-07-08T12:45:51;35.60;32.10
14733;DHT22;7457;50.960;6.830;2023-07-08T12:48:16;35.60;32.10
14733;DHT22;7457;50.960;6.830;2023-07-08T12:50:42;35.70;32.20
14733;DHT22;7457;50.960;6.830;2023-07-08T12:53:09;35.60;31.20
14733;DHT22;7457;50.960;6.830;2023-07-08T12:55:39;35.40;31.60
14733;DHT22;7457;50.960;6.830;2023-07-08T12:58:05;35.20;31.40
14733;DHT22;7457;50.960;6.830;2023-07-08T13:00:38;35.00;31.70
14733;DHT22;7457;50.960;6.830;2023-07-08T13:03:26;34.90;32.00
14733;DHT22;7457;50.960;6.830;2023-07-08T13:05:53;35.00;32.30
14733;DHT22;7457;50.960;6.830;2023-07-08T13:08:22;35.10;32.10
14733;DHT22;7457;50.960;6.830;2023-07-08T13:10:51;35.20;31.90
14733;DHT22;7457;50.960;6.830;2023-07-08T13:13:21;35.30;31.80
14733;DHT22;7457;50.960;6.830;2023-07-08T13:15:47;35.30;31.50
14733;DHT22;7457;50.960;6.830;2023-07-08T13:18:19;35.20;31.40
14733;DHT22;7457;50.960;6.830;2023-07-08T13:20:50;35.10;31.00
14733;DHT22;7457;50.960;6.830;2023-07-08T13:23:17;35.00;31.00
14733;DHT22;7457;50.960;6.830;2023-07-08T13:25:43;35.00;31.40
14733;DHT22;7457;50.960;6.830;2023-07-08T13:28:17;35.10;31.70
14733;DHT22;7457;50.960;6.830;2023-07-08T13:30:59;35.20;31.60
14733;DHT22;7457;50.960;6.830;2023-07-08T13:33:30;35.20;31.80
14733;DHT22;7457;50.960;6.830;2023-07-08T13:35:57;35.30;31.80
14733;DHT22;7457;50.960;6.830;2023-07-08T13:38:24;35.30;31.80
14733;DHT22;7457;50.960;6.830;2023-07-08T13:40:55;35.30;31.70
14733;DHT22;7457;50.960;6.830;2023-07-08T13:43:44;35.30;31.80
14733;DHT22;7457;50.960;6.830;2023-07-08T13:48:54;35.30;31.40
14733;DHT22;7457;50.960;6.830;2023-07-08T13:51:22;35.30;31.70
14733;DHT22;7457;50.960;6.830;2023-07-08T13:53:49;35.30;31.90
14733;DHT22;7457;50.960;6.830;2023-07-08T13:58:48;35.30;32.10
14733;DHT22;7457;50.960;6.830;2023-07-08T14:01:20;35.40;31.80
14733;DHT22;7457;50.960;6.830;2023-07-08T14:03:46;35.30;31.40
14733;DHT22;7457;50.960;6.830;2023-07-08T14:06:16;35.10;30.80
14733;DHT22;7457;50.960;6.830;2023-07-08T14:08:42;34.90;31.00
14733;DHT22;7457;50.960;6.830;2023-07-08T14:11:08;34.70;31.70
14733;DHT22;7457;50.960;6.830;2023-07-08T14:13:34;34.50;31.50
14733;DHT22;7457;50.960;6.830;2023-07-08T14:16:00;34.30;32.30
14733;DHT22;7457;50.960;6.830;2023-07-08T14:18:26;34.30;33.10
14733;DHT22;7457;50.960;6.830;2023-07-08T14:20:52;34.30;32.90
14733;DHT22;7457;50.960;6.830;2023-07-08T14:23:19;34.30;33.00
14733;DHT22;7457;50.960;6.830;2023-07-08T14:25:45;34.30;33.20
14733;DHT22;7457;50.960;6.830;2023-07-08T14:28:10;34.40;33.30
14733;DHT22;7457;50.960;6.830;2023-07-08T14:30:42;34.50;33.30
14733;DHT22;7457;50.960;6.830;2023-07-08T14:33:11;34.60;33.20
14733;DHT22;7457;50.960;6.830;2023-07-08T14:35:37;34.60;33.20
14733;DHT22;7457;50.960;6.830;2023-07-08T14:38:11;34.70;33.10
14733;DHT22;7457;50.960;6.830;2023-07-08T14:40:39;34.80;32.90
14733;DHT22;7457;50.960;6.830;2023-07-08T14:45:39;34.80;32.60
14733;DHT22;7457;50.960;6.830;2023-07-08T14:48:09;34.70;32.70
14733;DHT22;7457;50.960;6.830;2023-07-08T14:50:35;34.60;32.90
14733;DHT22;7457;50.960;6.830;2023-07-08T14:53:01;34.60;33.30
14733;DHT22;7457;50.960;6.830;2023-07-08T14:55:26;34.60;33.00
14733;DHT22;7457;50.960;6.830;2023-07-08T14:57:53;34.60;33.00
14733;DHT22;7457;50.960;6.830;2023-07-08T15:00:19;34.60;33.10
14733;DHT22;7457;50.960;6.830;2023-07-08T15:02:46;34.70;33.10
14733;DHT22;7457;50.960;6.830;2023-07-08T15:05:24;34.60;33.10
14733;DHT22;7457;50.960;6.830;2023-07-08T15:07:53;34.60;33.10
14733;DHT22;7457;50.960;6.830;2023-07-08T15:10:20;34.40;33.10
14733;DHT22;7457;50.960;6.830;2023-07-08T15:12:47;34.40;34.00
14733;DHT22;7457;50.960;6.830;2023-07-08T15:15:28;34.30;33.50
14733;DHT22;7457;50.960;6.830;2023-07-08T15:17:58;34.20;33.40
14733;DHT22;7457;50.960;6.830;2023-07-08T15:20:25;34.10;33.50
14733;DHT22;7457;50.960;6.830;2023-07-08T15:22:51;34.10;33.70
14733;DHT22;7457;50.960;6.830;2023-07-08T15:25:17;34.10;33.50
14733;DHT22;7457;50.960;6.830;2023-07-08T15:27:47;34.10;33.70
14733;DHT22;7457;50.960;6.830;2023-07-08T15:30:27;34.10;33.80
14733;DHT22;7457;50.960;6.830;2023-07-08T15:32:54;34.10;34.00
14733;DHT22;7457;50.960;6.830;2023-07-08T15:35:26;34.20;34.10
14733;DHT22;7457;50.960;6.830;2023-07-08T15:37:55;34.20;33.80
14733;DHT22;7457;50.960;6.830;2023-07-08T15:40:23;34.20;33.80
14733;DHT22;7457;50.960;6.830;2023-07-08T15:42:51;34.20;33.80
14733;DHT22;7457;50.960;6.830;2023-07-08T15:45:25;34.20;34.20
14733;DHT22;7457;50.960;6.830;2023-07-08T15:47:51;34.10;33.90
14733;DHT22;7457;50.960;6.830;2023-07-08T15:50:19;34.00;33.90
14733;DHT22;7457;50.960;6.830;2023-07-08T15:52:45;33.90;33.70
14733;DHT22;7457;50.960;6.830;2023-07-08T15:55:13;33.90;33.40
14733;DHT22;7457;50.960;6.830;2023-07-08T15:57:48;33.80;33.50
14733;DHT22;7457;50.960;6.830;2023-07-08T16:00:23;33.70;33.70
14733;DHT22;7457;50.960;6.830;2023-07-08T16:02:56;33.70;34.10
14733;DHT22;7457;50.960;6.830;2023-07-08T16:05:22;33.60;34.20
14733;DHT22;7457;50.960;6.830;2023-07-08T16:07:51;33.60;34.10
14733;DHT22;7457;50.960;6.830;2023-07-08T16:10:18;33.50;34.30
14733;DHT22;7457;50.960;6.830;2023-07-08T16:12:45;33.50;34.30
14733;DHT22;7457;50.960;6.830;2023-07-08T16:15:29;33.50;34.20
14733;DHT22;7457;50.960;6.830;2023-07-08T16:17:56;33.60;34.10
14733;DHT22;7457;50.960;6.830;2023-07-08T16:20:24;33.60;34.30
14733;DHT22;7457;50.960;6.830;2023-07-08T16:22:51;33.60;34.90
14733;DHT22;7457;50.960;6.830;2023-07-08T16:25:19;33.60;35.50
14733;DHT22;7457;50.960;6.830;2023-07-08T16:27:48;33.50;35.90
14733;DHT22;7457;50.960;6.830;2023-07-08T16:30:18;33.40;34.80
14733;DHT22;7457;50.960;6.830;2023-07-08T16:32:44;33.40;34.50
14733;DHT22;7457;50.960;6.830;2023-07-08T16:35:13;33.40;34.60
14733;DHT22;7457;50.960;6.830;2023-07-08T16:37:39;33.30;34.70
14733;DHT22;7457;50.960;6.830;2023-07-08T16:40:06;33.30;34.30
14733;DHT22;7457;50.960;6.830;2023-07-08T16:42:35;33.20;34.40
14733;DHT22;7457;50.960;6.830;2023-07-08T16:45:01;33.10;35.30
14733;DHT22;7457;50.960;6.830;2023-07-08T16:47:27;33.10;36.20
14733;DHT22;7457;50.960;6.830;2023-07-08T16:49:52;33.00;36.70
14733;DHT22;7457;50.960;6.830;2023-07-08T16:52:18;33.00;37.50
14733;DHT22;7457;50.960;6.830;2023-07-08T16:54:44;33.00;37.50
14733;DHT22;7457;50.960;6.830;2023-07-08T16:57:10;33.10;37.10
14733;DHT22;7457;50.960;6.830;2023-07-08T16:59:38;33.30;36.80
14733;DHT22;7457;50.960;6.830;2023-07-08T17:02:15;33.40;36.30